Time;durP1;ratioP1;P1;durP2;ratioP2;P2;SDS_P1;SDS_P2;PMS_P1;PMS_P2;Temp;Humidity;BMP_temperature;BMP_pressure;BME280_temperature;BME280_humidity;BME280_pressure;Samples;Min_cycle;Max_cycle;Signal;HPM_P1;HPM_P2
2023/03/01 00:01:25;;;;;;;5.17;2.73;;;1.50;60.70;;;;;;5057054;28;20115;-83
2023/03/01 00:03:52;;;;;;;7.03;2.90;;;1.40;61.00;;;;;;5073778;28;20614;-84
2023/03/01 00:06:18;;;;;;;7.97;3.37;;;1.40;60.80;;;;;;5074827;28;20033;-83
2023/03/01 00:08:44;;;;;;;6.03;3.00;;;1.40;60.90;;;;;;5073430;28;20020;-84
2023/03/01 00:11:18;;;;;;;7.47;3.10;;;1.40;60.80;;;;;;5056890;28;20029;-82
2023/03/01 00:13:44;;;;;;;5.68;2.70;;;1.40;61.00;;;;;;5073441;28;20464;-83
2023/03/01 00:16:13;;;;;;;5.90;3.03;;;1.40;61.20;;;;;;5073467;28;20449;-83
2023/03/01 00:18:39;;;;;;;7.20;3.10;;;1.30;61.20;;;;;;5073109;28;20024;-84
2023/03/01 00:21:05;;;;;;;5.93;2.80;;;1.20;61.30;;;;;;5056647;28;20074;-84
2023/03/01 00:23:33;;;;;;;11.63;2.90;;;1.30;61.40;;;;;;5056517;28;20496;-84
2023/03/01 00:25:58;;;;;;;6.43;2.97;;;1.30;61.50;;;;;;5056416;28;20059;-83
2023/03/01 00:28:24;;;;;;;8.00;2.87;;;1.30;61.60;;;;;;5072993;28;20028;-84
2023/03/01 00:30:50;;;;;;;5.57;2.50;;;1.20;61.50;;;;;;5072771;28;20111;-87
2023/03/01 00:33:16;;;;;;;5.87;3.13;;;1.20;61.60;;;;;;5073793;28;20025;-86
2023/03/01 00:35:41;;;;;;;6.33;2.57;;;1.20;61.80;;;;;;5056945;28;20048;-85
2023/03/01 00:38:08;;;;;;;5.93;3.03;;;1.30;62.00;;;;;;5057054;28;20488;-86
2023/03/01 00:40:35;;;;;;;6.30;3.00;;;1.10;62.10;;;;;;5073283;28;20101;-85
2023/03/01 00:43:01;;;;;;;6.47;3.30;;;1.10;62.10;;;;;;5073570;28;20017;-86
2023/03/01 00:45:27;;;;;;;7.57;3.40;;;1.10;62.20;;;;;;5073453;28;20156;-86
2023/03/01 00:47:53;;;;;;;5.33;2.63;;;1.10;62.30;;;;;;5056249;28;20024;-83
2023/03/01 00:50:19;;;;;;;7.33;2.73;;;1.20;62.50;;;;;;5055759;28;20028;-85
2023/03/01 00:52:45;;;;;;;6.73;3.10;;;1.10;62.60;;;;;;5072676;28;20369;-85
2023/03/01 00:55:11;;;;;;;7.20;3.40;;;1.10;62.70;;;;;;5056204;28;20067;-85
2023/03/01 00:57:38;;;;;;;6.67;3.13;;;1.10;62.90;;;;;;5073805;28;20421;-85
2023/03/01 01:00:07;;;;;;;7.33;3.50;;;1.10;62.70;;;;;;5056039;28;20020;-85
2023/03/01 01:02:33;;;;;;;9.20;3.30;;;1.00;62.60;;;;;;5055945;28;20107;-85
2023/03/01 01:04:59;;;;;;;6.97;3.37;;;1.00;62.70;;;;;;5056028;28;20107;-84
2023/03/01 01:07:25;;;;;;;7.87;3.23;;;1.00;62.80;;;;;;5056063;28;20033;-85
2023/03/01 01:09:51;;;;;;;7.47;3.13;;;0.80;62.70;;;;;;5072418;28;20132;-83
2023/03/01 01:12:16;;;;;;;7.23;3.20;;;0.90;63.00;;;;;;5073681;28;20042;-85
2023/03/01 01:14:42;;;;;;;7.00;3.33;;;0.80;63.10;;;;;;5072903;28;20119;-84
2023/03/01 01:17:07;;;;;;;7.30;2.77;;;0.90;63.30;;;;;;5079471;28;20072;-85
2023/03/01 01:19:33;;;;;;;7.67;3.40;;;0.90;63.60;;;;;;5057173;28;20594;-85
2023/03/01 01:21:59;;;;;;;7.70;3.60;;;0.90;63.80;;;;;;5056112;28;20028;-87
2023/03/01 01:24:24;;;;;;;6.90;3.07;;;0.90;63.80;;;;;;5073440;28;20017;-87
2023/03/01 01:26:50;;;;;;;7.57;3.70;;;0.90;64.50;;;;;;5056931;28;20027;-87
2023/03/01 01:29:15;;;;;;;6.80;3.17;;;0.90;64.50;;;;;;5073216;28;20561;-88
2023/03/01 01:31:42;;;;;;;10.80;3.80;;;0.80;64.90;;;;;;5040008;28;20028;-87
2023/03/01 01:34:14;;;;;;;9.00;3.80;;;0.80;64.80;;;;;;5073328;28;20017;-88
2023/03/01 01:36:40;;;;;;;8.13;3.90;;;0.80;64.90;;;;;;5073117;28;20524;-86
2023/03/01 01:39:06;;;;;;;9.40;4.27;;;0.80;65.00;;;;;;5073336;28;20067;-85
2023/03/01 01:41:31;;;;;;;9.40;5.10;;;0.80;65.60;;;;;;5056064;28;20082;-86
2023/03/01 01:44:19;;;;;;;10.20;4.40;;;0.80;66.40;;;;;;5072833;28;20424;-85
2023/03/01 01:46:47;;;;;;;13.53;5.80;;;0.80;66.60;;;;;;5073694;28;20021;-84
2023/03/01 01:49:19;;;;;;;10.07;5.57;;;0.80;67.20;;;;;;5073737;28;20029;-86
2023/03/01 01:51:48;;;;;;;11.30;5.60;;;0.70;67.10;;;;;;5072158;28;20123;-85
2023/03/01 01:54:35;;;;;;;9.53;5.27;;;0.70;67.50;;;;;;5071962;28;20036;-85
2023/03/01 01:57:03;;;;;;;10.10;5.43;;;0.70;67.40;;;;;;5073303;28;20107;-86
2023/03/01 01:59:31;;;;;;;12.03;5.10;;;0.80;67.80;;;;;;5074171;28;20020;-87
2023/03/01 02:02:01;;;;;;;10.23;5.37;;;0.60;67.80;;;;;;5078094;28;20021;-86
2023/03/01 02:04:28;;;;;;;9.77;5.23;;;0.70;67.70;;;;;;5078140;28;20119;-86
2023/03/01 02:07:23;;;;;;;11.03;5.40;;;0.70;67.50;;;;;;5076661;28;20789;-85
2023/03/01 02:09:52;;;;;;;9.40;5.13;;;0.60;67.20;;;;;;5051121;28;20044;-86
2023/03/01 02:12:21;;;;;;;10.03;5.03;;;0.60;67.90;;;;;;5073142;28;20774;-85
2023/03/01 02:14:47;;;;;;;9.20;4.97;;;0.60;68.20;;;;;;5072523;28;20392;-82
2023/03/01 02:17:15;;;;;;;13.63;5.57;;;0.60;68.20;;;;;;5071398;28;20289;-84
2023/03/01 02:20:14;;;;;;;7.93;4.27;;;0.60;67.90;;;;;;5071704;28;20380;-83
2023/03/01 02:22:43;;;;;;;11.70;5.27;;;0.60;68.40;;;;;;5071875;28;20793;-84
2023/03/01 02:25:17;;;;;;;9.93;5.40;;;0.60;69.00;;;;;;5071454;28;20116;-83
2023/03/01 02:27:55;;;;;;;9.40;5.03;;;0.60;68.90;;;;;;5072932;28;20091;-83
2023/03/01 02:30:23;;;;;;;10.17;4.10;;;0.60;68.30;;;;;;5071353;28;20024;-83
2023/03/01 02:32:52;;;;;;;8.23;4.03;;;0.60;68.10;;;;;;5072418;28;20029;-83
2023/03/01 02:35:19;;;;;;;6.93;4.03;;;0.70;68.20;;;;;;5071080;28;20042;-83
2023/03/01 02:37:45;;;;;;;8.47;4.17;;;0.60;67.80;;;;;;5071254;28;20017;-82
2023/03/01 02:40:17;;;;;;;10.90;4.33;;;0.50;67.50;;;;;;5072815;28;20039;-81
2023/03/01 02:42:51;;;;;;;7.60;3.87;;;0.70;67.70;;;;;;5072062;28;20066;-86
2023/03/01 02:45:17;;;;;;;10.00;4.63;;;0.70;67.50;;;;;;5072518;28;20407;-87
2023/03/01 02:47:43;;;;;;;6.90;4.20;;;0.50;67.50;;;;;;5072638;28;20080;-88
2023/03/01 02:50:54;;;;;;;10.73;3.87;;;0.50;67.50;;;;;;5055708;28;20032;-84
2023/03/01 02:53:43;;;;;;;8.53;4.27;;;0.50;67.30;;;;;;5047308;28;20095;-83
2023/03/01 02:56:12;;;;;;;8.20;4.20;;;0.50;67.90;;;;;;5076373;28;20298;-83
2023/03/01 02:58:47;;;;;;;9.40;3.93;;;0.50;68.10;;;;;;5075511;28;20069;-83
2023/03/01 03:01:14;;;;;;;9.27;4.13;;;0.50;68.60;;;;;;5076203;28;20017;-84
2023/03/01 03:03:41;;;;;;;8.70;4.27;;;0.50;68.50;;;;;;5074977;28;20373;-84
2023/03/01 03:06:07;;;;;;;7.57;3.63;;;0.50;68.10;;;;;;5058101;28;20021;-83
2023/03/01 03:08:33;;;;;;;9.83;4.37;;;0.50;68.40;;;;;;5074806;28;20713;-82
2023/03/01 03:10:59;;;;;;;9.47;3.83;;;0.40;68.30;;;;;;5074533;28;20369;-83
2023/03/01 03:13:28;;;;;;;8.63;4.47;;;0.50;68.20;;;;;;5074554;28;20020;-82
2023/03/01 03:15:55;;;;;;;7.83;4.03;;;0.50;68.30;;;;;;5074617;28;20036;-83
2023/03/01 03:18:21;;;;;;;7.07;3.53;;;0.50;68.30;;;;;;5057856;28;20646;-83
2023/03/01 03:20:47;;;;;;;7.77;3.73;;;0.50;68.10;;;;;;5074422;28;20020;-83
2023/03/01 03:23:13;;;;;;;7.77;4.10;;;0.50;68.10;;;;;;5073910;28;20028;-83
2023/03/01 03:25:39;;;;;;;6.70;3.40;;;0.40;68.20;;;;;;5041519;28;20028;-83
2023/03/01 03:28:09;;;;;;;9.37;3.80;;;0.50;68.20;;;;;;5057732;28;20029;-83
2023/03/01 03:30:41;;;;;;;7.27;3.63;;;0.50;68.50;;;;;;5058275;28;20067;-84
2023/03/01 03:33:07;;;;;;;9.00;4.07;;;0.40;68.30;;;;;;5074237;28;20286;-83
2023/03/01 03:35:39;;;;;;;7.80;4.37;;;0.40;68.80;;;;;;5073873;28;20082;-83
2023/03/01 03:38:15;;;;;;;9.20;4.27;;;0.40;68.50;;;;;;5073595;28;20294;-83
2023/03/01 03:40:45;;;;;;;8.53;3.70;;;0.40;68.50;;;;;;5073549;28;20025;-83
2023/03/01 03:43:17;;;;;;;7.07;3.40;;;0.40;68.20;;;;;;5071638;28;20034;-83
2023/03/01 03:45:44;;;;;;;6.97;3.33;;;0.40;68.10;;;;;;5062378;28;20283;-83
2023/03/01 03:48:10;;;;;;;9.20;4.10;;;0.50;68.20;;;;;;5052288;28;20461;-82
2023/03/01 03:50:37;;;;;;;6.57;3.53;;;0.40;68.20;;;;;;5052567;28;20136;-83
2023/03/01 03:53:06;;;;;;;8.73;4.03;;;0.30;68.30;;;;;;5055038;28;20060;-83
2023/03/01 03:55:33;;;;;;;7.73;3.57;;;0.30;68.20;;;;;;5055970;28;20032;-83
2023/03/01 03:58:06;;;;;;;8.17;3.70;;;0.30;68.30;;;;;;5055998;28;20330;-83
2023/03/01 04:00:33;;;;;;;9.00;4.07;;;0.20;68.30;;;;;;5054775;28;20282;-83
2023/03/01 04:03:00;;;;;;;8.87;3.63;;;0.20;68.40;;;;;;5054326;28;20106;-84
2023/03/01 04:05:27;;;;;;;7.50;3.80;;;0.20;68.50;;;;;;5053428;28;20040;-84
2023/03/01 04:08:00;;;;;;;8.37;4.17;;;0.20;68.60;;;;;;5053655;28;20763;-86
2023/03/01 04:10:28;;;;;;;8.90;3.63;;;0.10;68.60;;;;;;5054082;28;20309;-86
2023/03/01 04:12:55;;;;;;;7.93;3.57;;;0.10;68.80;;;;;;5053566;28;20017;-86
2023/03/01 04:15:23;;;;;;;8.43;4.10;;;0.10;68.90;;;;;;5053532;28;20310;-86
2023/03/01 04:17:51;;;;;;;9.20;3.97;;;0.00;69.00;;;;;;5053670;28;20291;-83
2023/03/01 04:20:24;;;;;;;7.93;3.83;;;0.00;69.10;;;;;;5069747;28;20278;-84
2023/03/01 04:22:51;;;;;;;7.33;3.90;;;0.00;69.20;;;;;;5053156;28;20464;-84
2023/03/01 04:25:17;;;;;;;7.93;3.87;;;0.00;69.20;;;;;;5053425;28;20267;-85
2023/03/01 04:27:43;;;;;;;9.33;3.77;;;-0.10;69.10;;;;;;5053417;28;20279;-85
2023/03/01 04:30:09;;;;;;;9.07;3.50;;;-0.10;69.20;;;;;;5054611;28;20024;-84
2023/03/01 04:32:35;;;;;;;7.50;3.70;;;-0.10;69.30;;;;;;5053290;28;20531;-85
2023/03/01 04:35:01;;;;;;;8.87;3.63;;;-0.10;69.40;;;;;;5069871;28;20045;-85
2023/03/01 04:37:27;;;;;;;7.73;3.97;;;-0.10;69.40;;;;;;5038286;22;20065;-79
2023/03/01 04:39:53;;;;;;;7.23;3.87;;;-0.20;69.40;;;;;;5009957;28;20076;-79
2023/03/01 04:42:19;;;;;;;8.13;4.07;;;-0.10;69.50;;;;;;4977604;28;20023;-79
2023/03/01 04:44:45;;;;;;;8.47;3.80;;;-0.20;69.60;;;;;;5010038;28;20402;-79
2023/03/01 04:47:11;;;;;;;7.30;3.20;;;-0.20;69.70;;;;;;4994211;28;20785;-79
2023/03/01 04:49:37;;;;;;;8.93;3.97;;;-0.10;69.70;;;;;;4961517;28;20286;-79
2023/03/01 04:52:03;;;;;;;8.40;4.10;;;-0.20;69.70;;;;;;4980599;28;20350;-79
2023/03/01 04:54:34;;;;;;;9.17;3.80;;;-0.20;69.80;;;;;;4997270;28;20466;-79
2023/03/01 04:57:01;;;;;;;8.13;3.40;;;-0.20;69.80;;;;;;4980627;28;20284;-79
2023/03/01 04:59:27;;;;;;;7.90;3.90;;;-0.20;69.80;;;;;;4996839;28;20402;-79
2023/03/01 05:01:56;;;;;;;9.33;4.03;;;-0.30;69.90;;;;;;4997008;28;20625;-79
2023/03/01 05:04:23;;;;;;;9.40;4.17;;;-0.30;69.90;;;;;;4996672;28;20371;-79
2023/03/01 05:06:49;;;;;;;7.77;3.90;;;-0.30;70.00;;;;;;4996571;28;20745;-79
2023/03/01 05:09:15;;;;;;;6.83;3.83;;;-0.30;70.20;;;;;;4980529;28;20319;-79
2023/03/01 05:11:41;;;;;;;6.87;2.93;;;-0.30;70.20;;;;;;4997736;28;20505;-79
2023/03/01 05:14:08;;;;;;;8.57;3.23;;;-0.40;70.30;;;;;;4996449;28;20091;-79
2023/03/01 05:16:35;;;;;;;7.23;3.10;;;-0.20;70.30;;;;;;4996358;28;20026;-80
2023/03/01 05:19:11;;;;;;;7.80;3.37;;;-0.40;70.20;;;;;;4996429;28;20280;-79
2023/03/01 05:22:01;;;;;;;8.03;3.23;;;-0.30;70.30;;;;;;4981422;28;20292;-79
2023/03/01 05:24:25;;;;;;;7.97;3.73;;;-0.30;70.30;;;;;;4999487;28;20292;-85
2023/03/01 05:26:53;;;;;;;9.83;3.83;;;-0.20;70.40;;;;;;4996402;28;20291;-85
2023/03/01 05:29:24;;;;;;;7.93;3.33;;;-0.10;70.50;;;;;;4965158;28;20041;-85
2023/03/01 05:31:55;;;;;;;8.77;3.80;;;-0.30;70.50;;;;;;4980861;28;20288;-85
2023/03/01 05:34:30;;;;;;;7.03;3.00;;;-0.40;70.50;;;;;;4996122;28;20318;-85
2023/03/01 05:36:55;;;;;;;7.27;3.40;;;-0.40;70.60;;;;;;5020932;28;20647;-85
2023/03/01 05:39:22;;;;;;;5.97;2.90;;;-0.40;70.70;;;;;;5019238;28;20282;-85
2023/03/01 05:41:52;;;;;;;7.93;3.83;;;-0.40;70.70;;;;;;5035508;28;20116;-85
2023/03/01 05:44:18;;;;;;;8.50;3.37;;;-0.40;70.80;;;;;;5046722;28;20292;-84
2023/03/01 05:46:44;;;;;;;8.13;3.30;;;-0.40;70.90;;;;;;5052083;28;20620;-85
2023/03/01 05:49:10;;;;;;;6.67;3.40;;;-0.40;70.90;;;;;;5006004;28;20477;-85
2023/03/01 05:51:36;;;;;;;9.73;3.80;;;-0.50;70.90;;;;;;5026566;28;20285;-84
2023/03/01 05:54:02;;;;;;;12.57;4.40;;;-0.40;71.10;;;;;;5015328;28;20366;-85
2023/03/01 05:56:28;;;;;;;6.40;2.83;;;-0.50;71.10;;;;;;5034302;28;20445;-85
2023/03/01 05:58:54;;;;;;;10.03;3.53;;;-0.50;71.20;;;;;;5033759;28;20056;-85
2023/03/01 06:01:20;;;;;;;8.07;3.77;;;-0.50;71.20;;;;;;5053126;28;20321;-85
2023/03/01 06:03:45;;;;;;;7.73;3.40;;;-0.50;71.30;;;;;;5055160;28;20434;-85
2023/03/01 06:06:11;;;;;;;7.20;3.67;;;-0.60;71.40;;;;;;5055162;28;20136;-85
2023/03/01 06:08:37;;;;;;;7.67;3.70;;;-0.60;71.50;;;;;;5071977;28;20456;-85
2023/03/01 06:11:02;;;;;;;11.00;4.00;;;-0.60;71.50;;;;;;5052591;28;20031;-86
2023/03/01 06:13:29;;;;;;;9.23;3.30;;;-0.60;71.70;;;;;;5049178;28;20031;-85
2023/03/01 06:15:55;;;;;;;14.33;3.93;;;-0.60;71.80;;;;;;5034764;28;20091;-80
2023/03/01 06:18:21;;;;;;;7.20;3.80;;;-0.60;71.90;;;;;;5034588;28;20643;-80
2023/03/01 06:20:55;;;;;;;11.70;4.60;;;-0.60;72.00;;;;;;5034914;28;20051;-80
2023/03/01 06:23:22;;;;;;;8.85;3.85;;;-0.60;72.10;;;;;;5032669;28;20290;-80
2023/03/01 06:25:48;;;;;;;10.77;3.97;;;-0.60;72.10;;;;;;5031468;28;20029;-79
2023/03/01 06:28:14;;;;;;;12.13;4.13;;;-0.60;72.10;;;;;;5031443;28;20291;-80
2023/03/01 06:30:39;;;;;;;13.13;5.47;;;-0.50;72.40;;;;;;5046320;28;20109;-80
2023/03/01 06:33:05;;;;;;;13.10;4.50;;;-0.50;72.60;;;;;;5058811;28;20059;-81
2023/03/01 06:35:31;;;;;;;9.33;4.47;;;-0.50;72.30;;;;;;5043329;28;20053;-78
2023/03/01 06:37:58;;;;;;;9.53;4.17;;;-0.50;72.30;;;;;;5053977;28;20049;-77
2023/03/01 06:40:25;;;;;;;18.93;5.23;;;-0.50;72.30;;;;;;5058706;28;20289;-78
2023/03/01 06:42:51;;;;;;;8.10;3.93;;;-0.40;72.40;;;;;;5059053;28;20290;-78
2023/03/01 06:45:18;;;;;;;9.07;4.03;;;-0.50;72.30;;;;;;5054093;28;20279;-78
2023/03/01 06:47:44;;;;;;;6.13;3.60;;;-0.40;72.40;;;;;;5055794;28;20120;-77
2023/03/01 06:50:10;;;;;;;9.00;3.90;;;-0.40;72.60;;;;;;5054504;28;20748;-78
2023/03/01 06:52:37;;;;;;;8.80;3.90;;;-0.40;72.60;;;;;;5069717;28;20110;-78
2023/03/01 06:55:03;;;;;;;10.13;3.47;;;-0.40;73.30;;;;;;5051879;28;20075;-78
2023/03/01 06:57:29;;;;;;;9.73;4.50;;;-0.40;72.80;;;;;;5075658;28;20317;-77
2023/03/01 06:59:55;;;;;;;8.07;4.00;;;-0.30;72.90;;;;;;5062954;28;20302;-78
2023/03/01 07:02:21;;;;;;;9.67;4.07;;;-0.20;73.00;;;;;;5058833;28;20100;-77
2023/03/01 07:04:49;;;;;;;7.80;4.03;;;-0.20;73.10;;;;;;5040313;28;20021;-77
2023/03/01 07:07:15;;;;;;;9.37;4.60;;;-0.30;73.10;;;;;;5056338;28;20715;-77
2023/03/01 07:09:41;;;;;;;11.83;4.13;;;-0.30;73.20;;;;;;5055053;28;20279;-78
2023/03/01 07:12:07;;;;;;;10.93;4.67;;;-0.30;73.30;;;;;;5057751;28;20044;-77
2023/03/01 07:14:33;;;;;;;11.67;4.50;;;-0.20;73.40;;;;;;5036676;28;20021;-77
2023/03/01 07:16:59;;;;;;;11.53;5.13;;;-0.20;73.40;;;;;;5036631;28;20029;-77
2023/03/01 07:19:24;;;;;;;8.83;4.37;;;-0.10;73.50;;;;;;5052930;28;20170;-77
2023/03/01 07:21:50;;;;;;;11.03;4.23;;;-0.20;73.50;;;;;;5050355;28;20519;-76
2023/03/01 07:24:16;;;;;;;8.80;4.30;;;0.00;73.50;;;;;;5031207;28;20036;-82
2023/03/01 07:26:41;;;;;;;12.30;4.70;;;-0.10;73.50;;;;;;5050856;28;20024;-81
2023/03/01 07:29:09;;;;;;;9.77;4.47;;;-0.10;73.50;;;;;;5056392;28;20025;-82
2023/03/01 07:31:35;;;;;;;9.80;4.07;;;-0.10;73.60;;;;;;5072875;28;20380;-81
2023/03/01 07:34:01;;;;;;;9.53;4.30;;;0.00;73.60;;;;;;5073194;28;20433;-81
2023/03/01 07:36:26;;;;;;;9.85;4.13;;;0.00;73.70;;;;;;5012685;28;1255638;-81
2023/03/01 07:38:52;;;;;;;10.93;3.90;;;0.10;73.80;;;;;;5057237;28;20032;-81
2023/03/01 07:41:18;;;;;;;9.77;4.43;;;0.10;74.10;;;;;;5048195;28;20040;-81
2023/03/01 07:43:43;;;;;;;8.07;4.10;;;0.20;74.50;;;;;;5039803;28;20570;-82
2023/03/01 07:46:09;;;;;;;10.70;4.63;;;0.30;74.50;;;;;;5037403;28;20029;-82
2023/03/01 07:48:35;;;;;;;8.40;4.00;;;0.30;74.10;;;;;;5023530;28;20385;-81
2023/03/01 07:51:02;;;;;;;10.43;4.57;;;0.40;74.10;;;;;;5042098;28;20025;-80
2023/03/01 07:53:28;;;;;;;8.40;4.10;;;0.40;74.10;;;;;;5062698;28;20035;-80
2023/03/01 07:56:21;;;;;;;9.20;4.60;;;0.70;74.20;;;;;;5053669;28;20045;-82
2023/03/01 07:58:47;;;;;;;8.43;3.50;;;0.60;74.20;;;;;;5051571;28;20037;-81
2023/03/01 08:01:18;;;;;;;9.13;4.03;;;0.70;74.20;;;;;;5054770;28;20056;-81
2023/03/01 08:03:44;;;;;;;9.03;4.53;;;0.60;74.10;;;;;;5053373;28;20111;-81
2023/03/01 08:06:11;;;;;;;9.70;4.40;;;0.70;74.80;;;;;;5056927;28;20024;-78
2023/03/01 08:08:37;;;;;;;11.83;4.20;;;0.80;74.20;;;;;;5056929;28;20025;-77
2023/03/01 08:11:05;;;;;;;9.27;4.37;;;0.80;74.20;;;;;;5056632;28;20036;-78
2023/03/01 08:13:31;;;;;;;8.90;3.93;;;0.90;74.30;;;;;;5063611;28;20029;-78
2023/03/01 08:16:05;;;;;;;9.43;4.23;;;1.00;74.30;;;;;;5055489;28;20033;-78
2023/03/01 08:18:32;;;;;;;8.88;4.32;;;1.00;74.30;;;;;;5052200;28;20483;-77
2023/03/01 08:21:05;;;;;;;7.53;3.57;;;1.10;74.20;;;;;;5039729;28;20495;-77
2023/03/01 08:23:31;;;;;;;7.82;3.97;;;1.20;74.10;;;;;;5061264;28;20028;-77
2023/03/01 08:26:10;;;;;;;12.67;5.30;;;1.40;74.30;;;;;;5056512;28;20014;-80
2023/03/01 08:28:36;;;;;;;8.33;3.90;;;1.30;74.00;;;;;;5059687;28;20032;-79
2023/03/01 08:31:03;;;;;;;8.93;4.70;;;1.40;73.90;;;;;;5054701;28;20485;-79
2023/03/01 08:33:28;;;;;;;8.50;4.00;;;1.50;73.90;;;;;;5054443;28;20031;-79
2023/03/01 08:36:06;;;;;;;9.70;4.93;;;1.60;73.80;;;;;;5036258;28;20033;-79
2023/03/01 08:38:32;;;;;;;10.10;4.37;;;1.80;73.80;;;;;;5053070;28;20029;-79
2023/03/01 08:41:02;;;;;;;11.70;4.73;;;1.70;73.50;;;;;;5053811;28;20109;-79
2023/03/01 08:43:28;;;;;;;9.13;3.93;;;1.80;73.40;;;;;;5019896;28;20112;-79
2023/03/01 08:45:54;;;;;;;13.83;4.50;;;1.90;73.30;;;;;;5036453;28;20067;-79
2023/03/01 08:48:19;;;;;;;10.37;4.43;;;2.00;73.30;;;;;;5052748;28;20029;-79
2023/03/01 08:50:45;;;;;;;8.33;3.83;;;2.10;73.20;;;;;;5035033;28;20021;-79
2023/03/01 08:53:11;;;;;;;9.20;4.40;;;2.20;73.10;;;;;;5051947;28;20032;-79
2023/03/01 08:55:36;;;;;;;12.30;4.10;;;2.30;73.00;;;;;;5069701;28;20060;-79
2023/03/01 08:58:02;;;;;;;11.57;4.27;;;2.30;72.80;;;;;;5059348;28;20032;-79
2023/03/01 09:00:27;;;;;;;7.50;3.53;;;2.50;72.90;;;;;;5034908;28;20017;-79
2023/03/01 09:02:53;;;;;;;9.37;4.50;;;2.50;72.60;;;;;;5035700;28;20032;-79
2023/03/01 09:05:19;;;;;;;8.30;3.37;;;2.60;72.60;;;;;;5035237;28;20373;-79
2023/03/01 09:07:44;;;;;;;8.37;3.57;;;2.70;72.40;;;;;;5052379;28;20032;-79
2023/03/01 09:10:11;;;;;;;11.97;3.47;;;2.80;72.20;;;;;;5033531;28;20388;-79
2023/03/01 09:12:36;;;;;;;8.57;4.00;;;2.80;72.10;;;;;;5053627;28;20029;-79
2023/03/01 09:15:02;;;;;;;7.07;3.70;;;2.80;72.00;;;;;;5052119;28;20021;-79
2023/03/01 09:17:28;;;;;;;9.87;4.07;;;3.00;71.80;;;;;;5035468;28;20025;-79
2023/03/01 09:19:53;;;;;;;6.33;3.10;;;3.10;71.40;;;;;;5035457;28;20025;-79
2023/03/01 09:22:19;;;;;;;7.30;3.60;;;3.30;71.30;;;;;;5055675;28;20033;-80
2023/03/01 09:24:45;;;;;;;10.87;3.77;;;3.30;71.10;;;;;;5055409;28;20059;-78
2023/03/01 09:27:12;;;;;;;11.67;3.70;;;3.30;70.70;;;;;;5073204;28;20089;-78
2023/03/01 09:29:38;;;;;;;9.30;3.00;;;3.40;71.20;;;;;;5049904;28;20492;-79
2023/03/01 09:32:04;;;;;;;11.07;3.60;;;3.50;70.70;;;;;;5070874;28;20045;-79
2023/03/01 09:34:30;;;;;;;7.10;3.07;;;3.60;70.30;;;;;;5035078;28;20051;-79
2023/03/01 09:36:57;;;;;;;6.53;3.30;;;3.70;70.00;;;;;;5035150;28;20534;-79
2023/03/01 09:39:23;;;;;;;8.70;3.67;;;3.70;69.80;;;;;;5051523;28;20112;-78
2023/03/01 09:41:59;;;;;;;10.57;3.67;;;3.80;69.60;;;;;;5052276;28;20096;-79
2023/03/01 09:44:41;;;;;;;8.83;3.73;;;3.90;69.50;;;;;;5063437;28;20025;-79
2023/03/01 09:47:19;;;;;;;9.23;3.57;;;4.00;69.20;;;;;;5060554;28;20512;-80
2023/03/01 09:49:58;;;;;;;9.53;3.50;;;4.10;69.30;;;;;;5051581;28;20021;-79
2023/03/01 09:52:45;;;;;;;8.27;3.93;;;4.30;69.20;;;;;;5052189;28;20047;-79
2023/03/01 09:55:20;;;;;;;6.73;3.77;;;4.30;68.90;;;;;;5066152;28;20078;-78
2023/03/01 09:57:48;;;;;;;11.30;4.97;;;4.40;68.60;;;;;;5057679;28;20108;-78
2023/03/01 10:00:28;;;;;;;8.77;4.50;;;4.50;68.20;;;;;;5053381;28;20049;-80
2023/03/01 10:03:01;;;;;;;7.87;4.20;;;4.70;67.90;;;;;;5054835;28;20108;-79
2023/03/01 10:06:01;;;;;;;8.68;4.20;;;4.90;67.40;;;;;;5054221;28;20123;-79
2023/03/01 10:08:32;;;;;;;9.07;4.50;;;5.20;66.70;;;;;;5049827;28;20064;-80
2023/03/01 10:10:58;;;;;;;10.27;4.60;;;5.60;66.60;;;;;;5049686;28;20024;-79
2023/03/01 10:13:39;;;;;;;6.90;3.50;;;6.10;66.60;;;;;;5017899;28;20124;-78
2023/03/01 10:16:20;;;;;;;5.93;3.47;;;6.70;67.10;;;;;;5051297;28;20086;-80
2023/03/01 10:18:52;;;;;;;5.97;3.17;;;7.40;67.30;;;;;;5055524;28;20048;-80
2023/03/01 10:21:20;;;;;;;5.70;3.10;;;8.20;67.30;;;;;;5052681;28;20543;-80
2023/03/01 10:23:46;;;;;;;6.47;2.90;;;9.00;66.50;;;;;;5040147;28;20074;-78
2023/03/01 10:26:24;;;;;;;4.75;2.50;;;9.80;65.90;;;;;;5058598;28;20036;-79
2023/03/01 10:28:52;;;;;;;7.35;2.90;;;10.70;64.50;;;;;;5051277;28;20040;-78
2023/03/01 10:31:36;;;;;;;4.82;2.97;;;11.50;64.40;;;;;;5052625;28;20029;-80
2023/03/01 10:34:08;;;;;;;4.53;2.35;;;12.40;62.90;;;;;;5036457;28;20029;-80
2023/03/01 10:36:35;;;;;;;6.55;2.28;;;13.20;63.00;;;;;;5051211;28;20041;-81
2023/03/01 10:39:26;;;;;;;5.95;2.00;;;14.00;60.30;;;;;;5051462;28;20017;-81
2023/03/01 10:42:17;;;;;;;4.60;2.00;;;14.70;58.70;;;;;;5051410;28;20396;-81
2023/03/01 10:44:48;;;;;;;5.38;2.60;;;15.50;57.30;;;;;;5050744;28;20040;-81
2023/03/01 10:47:15;;;;;;;5.68;2.08;;;16.30;55.50;;;;;;5051723;28;20036;-80
2023/03/01 10:50:02;;;;;;;4.40;2.17;;;16.90;53.70;;;;;;5051122;28;20071;-80
2023/03/01 10:52:40;;;;;;;5.68;1.95;;;17.30;50.60;;;;;;5052907;28;20032;-81
2023/03/01 10:55:26;;;;;;;4.47;2.13;;;17.70;49.80;;;;;;5057866;28;20024;-82
2023/03/01 10:58:19;;;;;;;4.00;2.08;;;18.20;48.00;;;;;;5071369;28;20013;-82
2023/03/01 11:00:54;;;;;;;4.03;1.97;;;18.60;47.20;;;;;;5054675;28;20027;-83
2023/03/01 11:03:40;;;;;;;5.05;2.08;;;19.10;46.80;;;;;;5071217;28;20023;-83
2023/03/01 11:06:24;;;;;;;3.50;1.85;;;19.40;44.50;;;;;;5053721;28;20047;-83
2023/03/01 11:08:51;;;;;;;3.95;1.70;;;19.80;43.40;;;;;;5071024;28;20028;-82
2023/03/01 11:11:34;;;;;;;4.95;2.00;;;20.10;43.40;;;;;;5070857;28;20040;-83
2023/03/01 11:14:06;;;;;;;4.53;2.00;;;20.50;41.60;;;;;;5054310;28;20070;-83
2023/03/01 11:16:40;;;;;;;3.83;1.63;;;20.80;41.50;;;;;;5074600;28;20063;-80
2023/03/01 11:19:08;;;;;;;3.03;1.50;;;21.20;40.50;;;;;;5074537;28;20583;-81
2023/03/01 11:21:38;;;;;;;2.83;1.48;;;21.50;40.00;;;;;;5074450;28;20112;-80
2023/03/01 11:24:09;;;;;;;3.83;1.83;;;21.60;38.90;;;;;;5074513;28;20430;-83
2023/03/01 11:26:40;;;;;;;3.78;1.70;;;21.70;38.20;;;;;;5065057;28;20484;-83
2023/03/01 11:29:16;;;;;;;3.00;1.35;;;22.00;37.60;;;;;;5073951;28;20111;-82
2023/03/01 11:31:43;;;;;;;4.50;2.03;;;22.30;36.50;;;;;;5074263;28;20116;-82
2023/03/01 11:34:19;;;;;;;3.88;1.70;;;22.50;36.50;;;;;;5057361;28;20085;-83
2023/03/01 11:36:53;;;;;;;4.30;2.33;;;22.70;35.40;;;;;;5073544;28;20077;-82
2023/03/01 11:39:38;;;;;;;4.45;2.00;;;22.70;34.80;;;;;;5061581;28;20450;-83
2023/03/01 11:42:15;;;;;;;4.55;1.70;;;22.80;34.00;;;;;;5052231;28;20024;-82
2023/03/01 11:44:43;;;;;;;6.18;1.90;;;22.90;33.90;;;;;;5051977;28;20021;-82
2023/03/01 11:47:26;;;;;;;5.40;1.90;;;23.00;33.60;;;;;;5052322;28;20119;-82
2023/03/01 11:50:18;;;;;;;5.45;2.22;;;23.20;33.20;;;;;;5053725;28;20029;-82
2023/03/01 11:52:54;;;;;;;3.85;1.58;;;23.20;32.50;;;;;;5053962;28;20173;-83
2023/03/01 11:55:35;;;;;;;3.85;1.65;;;23.40;33.00;;;;;;5054659;28;20021;-83
2023/03/01 11:58:32;;;;;;;4.38;1.73;;;23.70;32.30;;;;;;5054162;28;20036;-83
2023/03/01 12:01:36;;;;;;;3.65;1.67;;;23.90;31.40;;;;;;5047798;28;20056;-83
2023/03/01 12:04:22;;;;;;;3.08;1.63;;;23.90;31.00;;;;;;4977036;28;20085;-83
2023/03/01 12:07:02;;;;;;;3.83;1.60;;;23.90;31.30;;;;;;5050096;28;20389;-82
2023/03/01 12:09:38;;;;;;;4.78;1.63;;;24.00;31.20;;;;;;5053382;28;20017;-81
2023/03/01 12:12:06;;;;;;;4.05;1.67;;;24.20;30.90;;;;;;5053588;28;20029;-83
2023/03/01 12:14:52;;;;;;;6.75;1.85;;;24.30;31.10;;;;;;5053393;28;20059;-82
2023/03/01 12:18:04;;;;;;;4.15;2.33;;;24.60;30.70;;;;;;5053320;28;20478;-83
2023/03/01 12:20:40;;;;;;;6.55;2.72;;;24.70;30.00;;;;;;5054499;28;20021;-82
2023/03/01 12:23:15;;;;;;;3.13;1.63;;;24.60;30.00;;;;;;5054694;28;20104;-82
2023/03/01 12:25:59;;;;;;;3.50;2.05;;;24.60;30.20;;;;;;5054484;28;20550;-83
2023/03/01 12:28:51;;;;;;;3.10;1.95;;;24.80;29.80;;;;;;5052187;28;20025;-82
2023/03/01 12:31:29;;;;;;;4.22;1.80;;;24.80;29.50;;;;;;5053413;28;20108;-83
2023/03/01 12:33:55;;;;;;;3.35;1.70;;;24.80;29.40;;;;;;5053107;28;20024;-82
2023/03/01 12:36:23;;;;;;;4.57;1.90;;;24.80;29.40;;;;;;5053097;28;20389;-82
2023/03/01 12:38:50;;;;;;;3.85;2.15;;;24.80;29.20;;;;;;5052770;28;20049;-83
2023/03/01 12:41:34;;;;;;;5.07;2.28;;;24.80;29.00;;;;;;5052574;28;20033;-82
2023/03/01 12:44:05;;;;;;;;;;;25.00;28.90;;;;;;5057181;28;20021;-82
2023/03/01 12:46:48;;;;;;;3.72;1.40;;;25.10;29.20;;;;;;5053087;28;20287;-82
2023/03/01 12:49:26;;;;;;;3.65;2.08;;;25.30;29.20;;;;;;5071326;28;20028;-82
2023/03/01 12:52:04;;;;;;;5.03;2.15;;;25.40;29.10;;;;;;5073672;28;20111;-83
2023/03/01 12:54:41;;;;;;;3.50;1.70;;;25.60;29.00;;;;;;5072803;28;20100;-83
2023/03/01 12:57:17;;;;;;;6.30;1.90;;;26.00;28.80;;;;;;5072413;28;20029;-84
2023/03/01 13:00:00;;;;;;;4.85;2.28;;;26.10;28.50;;;;;;5073952;28;20087;-83
2023/03/01 13:03:00;;;;;;;4.55;1.55;;;26.30;28.30;;;;;;5072327;28;20027;-83
2023/03/01 13:05:59;;;;;;;3.47;1.55;;;26.40;28.20;;;;;;5072282;28;20024;-83
2023/03/01 13:08:32;;;;;;;3.88;2.03;;;26.40;28.20;;;;;;5089316;28;20412;-83